Time;durP1;ratioP1;P1;durP2;ratioP2;P2;SDS_P1;SDS_P2;PMS_P1;PMS_P2;Temp;Humidity;BMP_temperature;BMP_pressure;BME280_temperature;BME280_humidity;BME280_pressure;Samples;Min_cycle;Max_cycle;Signal;HPM_P1;HPM_P2
2023/05/26 00:02:01;;;;;;;28.73;14.48;;;;;;;15.08;100.00;98859.25;5091347;28;20048;-93
2023/05/26 00:04:31;;;;;;;30.55;14.55;;;;;;;15.12;100.00;98869.75;5086014;28;20040;-96
2023/05/26 00:06:58;;;;;;;32.58;15.50;;;;;;;14.95;100.00;98850.88;5098785;28;20086;-94
2023/05/26 00:09:25;;;;;;;29.27;13.95;;;;;;;14.86;100.00;98845.94;5094570;28;20063;-94
2023/05/26 00:11:51;;;;;;;30.38;14.27;;;;;;;14.98;100.00;98864.13;5096769;28;20040;-93
2023/05/26 00:14:17;;;;;;;31.20;14.25;;;;;;;15.05;100.00;98864.72;5093960;28;20044;-94
2023/05/26 00:16:45;;;;;;;34.15;14.38;;;;;;;14.96;100.00;98845.47;5092471;28;20066;-95
2023/05/26 00:19:12;;;;;;;25.33;12.98;;;;;;;14.93;100.00;98845.56;5098186;28;20105;-94
2023/05/26 00:21:39;;;;;;;27.60;13.57;;;;;;;14.98;100.00;98853.41;5100980;28;20512;-96
2023/05/26 00:24:05;;;;;;;23.85;12.25;;;;;;;14.83;100.00;98830.84;5089697;28;20047;-93
2023/05/26 00:26:31;;;;;;;26.23;13.98;;;;;;;14.93;100.00;98858.97;5092181;28;20043;-94
2023/05/26 00:28:57;;;;;;;25.75;13.90;;;;;;;14.86;100.00;98844.13;5092893;28;20114;-93
2023/05/26 00:31:23;;;;;;;26.35;13.27;;;;;;;14.89;100.00;98860.03;5100261;28;20052;-93
2023/05/26 00:33:51;;;;;;;25.70;13.35;;;;;;;14.91;100.00;98863.50;5093778;28;20032;-95
2023/05/26 00:36:17;;;;;;;23.73;12.27;;;;;;;14.73;100.00;98837.56;5094258;28;20070;-94
2023/05/26 00:38:46;;;;;;;22.23;12.65;;;;;;;14.75;100.00;98844.56;5091038;28;20048;-96
2023/05/26 00:41:11;;;;;;;;;;;;;;;14.91;100.00;98876.03;5088095;28;20048;-93
2023/05/26 00:43:37;;;;;;;23.90;12.48;;;;;;;14.84;100.00;98866.53;5097423;28;19951;-93
2023/05/26 00:46:03;;;;;;;23.20;12.45;;;;;;;14.68;100.00;98835.06;5093141;28;20040;-93
2023/05/26 00:48:29;;;;;;;23.58;11.85;;;;;;;14.75;100.00;98857.09;5095388;28;20066;-95
2023/05/26 00:50:59;;;;;;;23.60;12.32;;;;;;;14.62;100.00;98829.97;5092886;28;20560;-94
2023/05/26 00:53:25;;;;;;;18.98;12.02;;;;;;;14.62;100.00;98835.34;5094648;28;20520;-94
2023/05/26 00:55:53;;;;;;;20.63;11.70;;;;;;;14.84;100.00;98858.50;5102796;28;20040;-92
2023/05/26 00:58:20;;;;;;;18.58;10.98;;;;;;;14.66;100.00;98839.63;5087668;28;20420;-94
2023/05/26 01:00:46;;;;;;;19.35;10.65;;;;;;;14.66;100.00;98825.34;5096692;28;20089;-95
2023/05/26 01:03:13;;;;;;;17.92;10.57;;;;;;;14.63;100.00;98828.16;5092696;28;20036;-93
2023/05/26 01:05:39;;;;;;;17.63;9.88;;;;;;;14.68;100.00;98827.03;5094094;28;20054;-94
2023/05/26 01:08:06;;;;;;;15.13;8.77;;;;;;;14.82;100.00;98826.44;5097556;28;20087;-93
2023/05/26 01:10:33;;;;;;;17.27;9.35;;;;;;;15.03;100.00;98861.22;5089926;28;20058;-93
2023/05/26 01:13:03;;;;;;;16.45;8.10;;;;;;;15.27;100.00;98840.56;5085969;28;20058;-94
2023/05/26 01:15:33;;;;;;;15.30;8.52;;;;;;;15.33;100.00;98833.09;5098115;28;20134;-93
2023/05/26 01:18:05;;;;;;;14.32;7.57;;;;;;;15.72;100.00;98861.72;5097202;28;20066;-93
2023/05/26 01:20:38;;;;;;;16.10;8.45;;;;;;;15.64;100.00;98844.22;5090940;28;20044;-93
2023/05/26 01:23:27;;;;;;;12.15;7.53;;;;;;;15.66;100.00;98828.91;5095904;28;20035;-94
2023/05/26 01:26:21;;;;;;;13.65;8.77;;;;;;;16.18;99.73;98847.94;5087147;28;20068;-94
2023/05/26 01:28:52;;;;;;;12.13;6.97;;;;;;;16.51;98.11;98856.13;5078013;28;20042;-94
2023/05/26 01:31:18;;;;;;;11.23;7.07;;;;;;;16.54;95.41;98839.00;5088327;28;20048;-95
2023/05/26 01:33:44;;;;;;;9.95;7.28;;;;;;;16.71;95.70;98873.06;5088700;28;20392;-94
2023/05/26 01:36:10;;;;;;;10.50;7.22;;;;;;;16.68;95.89;98870.53;5097764;28;20058;-94
2023/05/26 01:38:36;;;;;;;12.85;7.55;;;;;;;16.46;96.00;98839.41;5095850;28;20050;-93
2023/05/26 01:41:07;;;;;;;13.13;7.15;;;;;;;16.57;96.30;98863.88;5093223;28;20481;-95
2023/05/26 01:43:41;;;;;;;12.98;8.02;;;;;;;16.32;97.77;98834.69;5101463;28;20488;-94
2023/05/26 01:46:22;;;;;;;10.82;7.03;;;;;;;16.43;98.45;98877.09;5094212;28;20177;-94
2023/05/26 01:48:50;;;;;;;10.60;7.10;;;;;;;16.07;100.00;98836.84;5090390;28;20044;-96
2023/05/26 01:51:18;;;;;;;12.07;7.15;;;;;;;15.96;100.00;98834.66;5078514;28;20073;-95
2023/05/26 01:53:48;;;;;;;10.25;6.88;;;;;;;15.90;100.00;98843.03;5090020;28;20044;-95
2023/05/26 01:56:15;;;;;;;11.95;7.47;;;;;;;15.79;100.00;98841.72;5084018;28;20131;-95
2023/05/26 01:58:43;;;;;;;11.63;7.05;;;;;;;15.78;100.00;98852.50;5090553;28;20035;-95
2023/05/26 02:01:11;;;;;;;10.63;7.13;;;;;;;15.70;100.00;98839.44;5094168;28;20480;-94
2023/05/26 02:03:37;;;;;;;12.23;7.10;;;;;;;15.76;100.00;98831.13;5090167;28;20044;-94
2023/05/26 02:06:03;;;;;;;10.93;7.43;;;;;;;15.70;100.00;98823.38;5089214;28;20366;-93
2023/05/26 02:08:29;;;;;;;10.40;6.88;;;;;;;15.61;100.00;98834.50;5094983;28;20040;-94
2023/05/26 02:10:55;;;;;;;10.10;6.97;;;;;;;15.44;100.00;98810.28;5092305;28;20071;-92
2023/05/26 02:13:21;;;;;;;12.43;7.15;;;;;;;15.55;100.00;98850.88;5092560;28;20032;-94
2023/05/26 02:15:47;;;;;;;13.52;7.40;;;;;;;15.35;100.00;98819.63;5100952;28;20074;-94
2023/05/26 02:18:15;;;;;;;12.48;7.38;;;;;;;15.23;100.00;98818.38;5084960;28;20040;-93
2023/05/26 02:20:41;;;;;;;11.10;6.97;;;;;;;15.37;100.00;98861.47;5095199;28;20032;-94
2023/05/26 02:23:07;;;;;;;10.27;6.90;;;;;;;15.05;100.00;98825.44;5090670;28;20059;-94
2023/05/26 02:25:33;;;;;;;10.68;7.00;;;;;;;15.08;100.00;98846.72;5084546;28;20036;-94
2023/05/26 02:27:59;;;;;;;13.10;7.30;;;;;;;14.83;100.00;98824.63;5091032;28;20046;-93
2023/05/26 02:30:25;;;;;;;10.95;7.20;;;;;;;14.82;100.00;98828.25;5094116;28;20056;-94
2023/05/26 02:32:52;;;;;;;11.35;7.55;;;;;;;14.79;100.00;98843.50;5089254;28;20134;-94
2023/05/26 02:35:19;;;;;;;11.77;7.53;;;;;;;14.78;100.00;98832.84;5084226;28;20048;-93
2023/05/26 02:37:45;;;;;;;10.50;7.18;;;;;;;14.74;100.00;98828.56;5094390;28;20535;-94
2023/05/26 02:40:11;;;;;;;11.35;7.22;;;;;;;14.93;100.00;98861.66;5088200;28;20036;-94
2023/05/26 02:42:37;;;;;;;11.73;7.38;;;;;;;14.69;100.00;98830.59;5099401;28;20044;-95
2023/05/26 02:45:04;;;;;;;12.02;7.05;;;;;;;14.70;100.00;98832.31;5087845;28;20139;-94
2023/05/26 02:47:30;;;;;;;13.38;7.65;;;;;;;14.70;100.00;98833.22;5098336;28;20040;-93
2023/05/26 02:49:56;;;;;;;12.32;7.32;;;;;;;14.76;100.00;98821.34;5093032;28;20051;-93
2023/05/26 02:52:23;;;;;;;11.02;6.97;;;;;;;14.66;100.00;98812.84;5088153;28;20093;-94
2023/05/26 02:54:50;;;;;;;11.77;7.30;;;;;;;15.02;100.00;98846.13;5088049;28;20033;-92
2023/05/26 02:57:15;;;;;;;11.48;7.60;;;;;;;14.70;100.00;98808.22;5080356;28;20044;-92
2023/05/26 02:59:41;;;;;;;12.35;7.68;;;;;;;14.75;100.00;98844.56;5096302;28;20063;-93
2023/05/26 03:02:08;;;;;;;10.50;7.45;;;;;;;14.57;100.00;98821.25;5089288;28;20107;-94
2023/05/26 03:04:34;;;;;;;10.65;7.32;;;;;;;14.53;100.00;98838.34;5086840;28;20044;-95
2023/05/26 03:07:01;;;;;;;10.35;7.53;;;;;;;14.31;100.00;98823.22;5086973;28;20070;-94
2023/05/26 03:09:28;;;;;;;14.40;8.18;;;;;;;14.20;100.00;98814.75;5092767;28;20151;-92
2023/05/26 03:11:54;;;;;;;12.68;7.95;;;;;;;14.27;100.00;98850.13;5094820;28;20031;-94
2023/05/26 03:14:20;;;;;;;12.88;8.48;;;;;;;14.18;100.00;98857.63;5093939;28;20378;-94
2023/05/26 03:16:46;;;;;;;11.20;7.53;;;;;;;14.11;100.00;98850.75;5095242;28;20160;-92
2023/05/26 03:19:11;;;;;;;12.30;7.78;;;;;;;14.15;100.00;98859.53;5088072;28;20044;-93
2023/05/26 03:21:37;;;;;;;12.13;7.28;;;;;;;14.03;100.00;98842.19;5097352;28;20036;-95
2023/05/26 03:24:04;;;;;;;9.95;7.40;;;;;;;13.92;100.00;98839.94;5092029;28;20130;-94
2023/05/26 03:26:31;;;;;;;11.82;7.22;;;;;;;13.95;100.00;98858.50;5089786;28;20040;-94
2023/05/26 03:28:57;;;;;;;12.95;7.85;;;;;;;13.74;100.00;98838.84;5097174;28;20066;-94
2023/05/26 03:31:23;;;;;;;12.60;8.10;;;;;;;13.67;100.00;98829.31;5091688;28;20052;-92
2023/05/26 03:33:49;;;;;;;13.32;7.22;;;;;;;13.63;100.00;98819.69;5087575;28;20044;-94
2023/05/26 03:36:15;;;;;;;11.20;7.82;;;;;;;13.68;100.00;98832.84;5092128;28;20044;-94
2023/05/26 03:38:40;;;;;;;9.68;7.30;;;;;;;13.87;100.00;98862.41;5091799;28;20073;-93
2023/05/26 03:41:07;;;;;;;11.57;7.25;;;;;;;13.76;100.00;98842.31;5086346;28;20066;-93
2023/05/26 03:43:34;;;;;;;11.02;7.25;;;;;;;13.77;100.00;98828.03;5087427;28;20036;-92
2023/05/26 03:46:00;;;;;;;10.68;6.90;;;;;;;14.00;100.00;98836.94;5103400;28;20044;-93
2023/05/26 03:48:26;;;;;;;11.55;6.90;;;;;;;14.75;100.00;98831.19;5102799;28;20046;-93
2023/05/26 03:50:52;;;;;;;11.35;6.55;;;;;;;15.40;100.00;98845.28;5091233;28;20040;-92
2023/05/26 03:53:18;;;;;;;9.25;6.55;;;;;;;15.89;100.00;98871.63;5093893;28;20040;-93
2023/05/26 03:55:45;;;;;;;8.88;6.78;;;;;;;15.90;100.00;98851.94;5090454;28;20040;-94
2023/05/26 03:58:12;;;;;;;8.95;6.32;;;;;;;15.80;100.00;98840.75;5089166;28;20048;-94
2023/05/26 04:00:39;;;;;;;8.98;6.18;;;;;;;15.79;100.00;98857.81;5087491;28;20044;-94
2023/05/26 04:03:05;;;;;;;9.15;5.95;;;;;;;15.56;100.00;98828.50;5098032;28;20036;-93
2023/05/26 04:05:31;;;;;;;9.38;6.05;;;;;;;15.66;100.00;98835.16;5100045;28;20480;-92
2023/05/26 04:07:57;;;;;;;8.30;6.05;;;;;;;15.71;100.00;98835.84;5088586;28;20093;-92
2023/05/26 04:10:23;;;;;;;11.40;6.15;;;;;;;15.84;99.90;98844.19;5090986;28;20059;-93
2023/05/26 04:12:49;;;;;;;9.27;5.80;;;;;;;15.91;100.00;98853.66;5097671;28;20043;-93
2023/05/26 04:15:15;;;;;;;9.75;5.35;;;;;;;15.79;100.00;98836.34;5083995;28;20036;-92
2023/05/26 04:17:42;;;;;;;8.00;6.00;;;;;;;15.97;98.74;98865.94;5090509;28;20048;-94
2023/05/26 04:20:10;;;;;;;8.25;5.93;;;;;;;15.91;98.75;98840.25;5084615;28;20132;-95
2023/05/26 04:22:36;;;;;;;9.02;5.70;;;;;;;15.89;99.02;98847.50;5084118;28;20036;-95
2023/05/26 04:25:03;;;;;;;8.95;6.15;;;;;;;15.82;100.00;98844.25;5085644;28;20111;-93
2023/05/26 04:27:29;;;;;;;11.27;6.72;;;;;;;15.80;100.00;98858.66;5084349;28;20044;-94
2023/05/26 04:29:58;;;;;;;11.38;6.28;;;;;;;15.61;100.00;98845.22;5103938;28;20086;-94
2023/05/26 04:32:23;;;;;;;;;;;;;;;15.67;100.00;98887.84;5091347;28;20561;-93
2023/05/26 04:34:52;;;;;;;10.35;6.32;;;;;;;15.41;100.00;98844.31;5090143;28;19920;-94
2023/05/26 04:37:18;;;;;;;8.53;5.60;;;;;;;15.68;100.00;98881.53;5089923;28;20555;-94
2023/05/26 04:39:44;;;;;;;9.88;6.53;;;;;;;15.68;100.00;98854.72;5094314;28;20044;-94
2023/05/26 04:42:10;;;;;;;9.55;6.40;;;;;;;15.92;100.00;98884.06;5095136;28;20040;-93
2023/05/26 04:44:37;;;;;;;9.60;5.72;;;;;;;15.83;100.00;98880.00;5092538;28;20031;-94
2023/05/26 04:47:08;;;;;;;9.40;6.20;;;;;;;15.66;100.00;98853.03;5084369;28;20040;-94
2023/05/26 04:49:34;;;;;;;9.50;5.97;;;;;;;15.71;100.00;98873.38;5084009;28;20048;-93
2023/05/26 04:52:02;;;;;;;9.50;5.70;;;;;;;15.93;100.00;98880.41;5090926;28;20069;-94
2023/05/26 04:54:28;;;;;;;8.32;5.97;;;;;;;15.87;100.00;98856.56;5097088;28;20150;-93
2023/05/26 04:56:53;;;;;;;8.60;6.28;;;;;;;16.26;100.00;98888.66;5093151;28;20064;-94
2023/05/26 04:59:21;;;;;;;10.43;7.15;;;;;;;16.42;99.19;98880.75;5098555;28;20046;-93
2023/05/26 05:01:47;;;;;;;8.50;6.22;;;;;;;17.08;93.96;98881.94;5088113;28;20036;-93
2023/05/26 05:04:13;;;;;;;8.50;5.10;;;;;;;17.38;91.45;98857.97;5086474;28;20046;-93
2023/05/26 05:06:40;;;;;;;10.32;6.40;;;;;;;17.64;88.69;98864.63;5092518;28;20044;-94
2023/05/26 05:09:07;;;;;;;8.57;5.60;;;;;;;17.82;88.70;98865.47;5099519;28;20043;-92
2023/05/26 05:11:33;;;;;;;9.98;5.53;;;;;;;17.98;87.46;98857.44;5084506;28;20131;-93
2023/05/26 05:14:00;;;;;;;8.90;5.97;;;;;;;18.51;86.17;98893.00;5090883;28;20055;-93
2023/05/26 05:16:25;;;;;;;7.40;5.10;;;;;;;18.51;85.64;98872.34;5086232;28;20044;-92
2023/05/26 05:18:53;;;;;;;9.40;5.53;;;;;;;18.84;84.68;98863.25;5095495;28;20100;-94
2023/05/26 05:21:19;;;;;;;11.10;5.72;;;;;;;18.88;84.33;98870.19;5098336;28;20048;-95
2023/05/26 05:23:45;;;;;;;10.57;5.80;;;;;;;19.55;83.01;98892.19;5084688;28;20052;-95
2023/05/26 05:26:12;;;;;;;7.68;5.53;;;;;;;19.92;79.17;98889.06;5081344;28;20458;-94
2023/05/26 05:28:38;;;;;;;9.52;5.65;;;;;;;19.28;82.31;98884.84;5089769;28;20048;-93
2023/05/26 05:31:04;;;;;;;9.00;5.47;;;;;;;19.65;80.89;98877.19;5084191;28;20097;-93
2023/05/26 05:33:30;;;;;;;8.70;5.78;;;;;;;20.15;78.99;98895.72;5097808;28;20042;-93
2023/05/26 05:35:56;;;;;;;8.55;5.90;;;;;;;20.21;76.14;98869.19;5093645;28;20035;-95
2023/05/26 05:38:22;;;;;;;9.52;5.90;;;;;;;20.09;78.85;98891.56;5083323;28;20127;-96
2023/05/26 05:40:48;;;;;;;8.60;5.75;;;;;;;20.14;79.89;98883.16;5081577;28;20040;-94
2023/05/26 05:43:15;;;;;;;8.73;5.97;;;;;;;20.34;79.43;98873.75;5085768;28;20135;-95
2023/05/26 05:45:41;;;;;;;8.10;5.43;;;;;;;20.73;78.00;98891.88;5080958;28;20063;-94
2023/05/26 05:48:07;;;;;;;7.90;5.75;;;;;;;20.91;76.33;98896.06;5078585;28;20074;-93
2023/05/26 05:50:32;;;;;;;9.57;5.75;;;;;;;20.87;78.08;98890.97;5086101;28;20565;-93
2023/05/26 05:52:58;;;;;;;9.00;6.18;;;;;;;21.11;75.11;98901.97;5085694;28;20135;-93
2023/05/26 05:55:24;;;;;;;11.45;5.95;;;;;;;20.95;74.35;98871.53;5096448;28;20047;-93
2023/05/26 05:57:52;;;;;;;10.27;6.50;;;;;;;20.61;74.38;98882.78;5103163;28;20047;-94
2023/05/26 06:00:19;;;;;;;9.93;6.43;;;;;;;20.65;76.71;98895.13;5077567;28;20068;-95
2023/05/26 06:02:45;;;;;;;12.48;5.97;;;;;;;20.93;75.28;98882.47;5082026;28;20039;-93
2023/05/26 06:05:11;;;;;;;8.07;5.63;;;;;;;21.10;74.83;98890.28;5082059;28;20097;-95
2023/05/26 06:07:37;;;;;;;8.63;6.05;;;;;;;20.72;76.20;98879.34;5081754;28;20043;-95
2023/05/26 06:10:04;;;;;;;9.73;6.30;;;;;;;21.18;75.20;98887.03;5083247;28;20145;-95
2023/05/26 06:12:29;;;;;;;8.93;6.32;;;;;;;21.28;74.06;98888.16;5083019;28;20048;-95
2023/05/26 06:14:55;;;;;;;9.13;6.47;;;;;;;21.42;76.17;98898.03;5082705;28;20036;-93
2023/05/26 06:17:23;;;;;;;9.65;6.47;;;;;;;21.11;75.40;98892.00;5082815;28;20036;-94
2023/05/26 06:19:49;;;;;;;10.05;6.18;;;;;;;21.16;72.95;98878.16;5085309;28;20052;-94
2023/05/26 06:22:15;;;;;;;10.13;6.85;;;;;;;21.10;73.64;98884.00;5085664;28;20048;-95
2023/05/26 06:24:41;;;;;;;10.32;6.63;;;;;;;20.88;75.22;98917.03;5099127;28;20062;-93
2023/05/26 06:27:07;;;;;;;10.73;6.60;;;;;;;21.03;76.59;98917.84;5083400;28;20044;-95
2023/05/26 06:29:33;;;;;;;9.88;6.60;;;;;;;21.37;74.12;98899.31;5086159;28;20501;-95
2023/05/26 06:31:59;;;;;;;8.70;6.00;;;;;;;21.31;76.22;98881.66;5068626;28;20052;-95
2023/05/26 06:34:26;;;;;;;8.65;6.05;;;;;;;21.39;74.79;98889.25;5069331;28;20045;-95
2023/05/26 06:36:54;;;;;;;7.85;6.05;;;;;;;21.33;75.55;98893.22;5069323;28;20044;-95
2023/05/26 06:39:20;;;;;;;11.73;6.55;;;;;;;21.11;76.43;98885.75;5069712;28;20044;-94
2023/05/26 06:41:47;;;;;;;8.55;6.22;;;;;;;21.26;77.13;98925.25;5071521;28;20052;-96
2023/05/26 06:44:13;;;;;;;9.88;6.28;;;;;;;21.36;75.85;98894.84;5068794;28;20044;-95
2023/05/26 06:46:39;;;;;;;10.30;6.55;;;;;;;21.53;75.20;98886.47;5065618;28;20532;-94
2023/05/26 06:49:05;;;;;;;9.25;6.07;;;;;;;21.60;75.64;98895.00;5071411;28;20040;-94
2023/05/26 06:51:32;;;;;;;10.18;6.72;;;;;;;21.58;75.14;98880.72;5085148;28;20044;-96
2023/05/26 06:53:58;;;;;;;11.38;6.55;;;;;;;21.66;75.82;98892.72;5079737;28;20044;-96
2023/05/26 06:56:26;;;;;;;25.40;11.85;;;;;;;21.64;74.25;98880.28;5076463;28;20098;-96
2023/05/26 06:58:52;;;;;;;10.68;7.45;;;;;;;21.85;73.56;98897.72;5063873;28;20048;-94
2023/05/26 07:01:19;;;;;;;13.45;7.47;;;;;;;22.11;73.46;98876.03;5060900;28;20498;-96
2023/05/26 07:03:45;;;;;;;10.63;6.38;;;;;;;22.03;73.71;98911.75;5064317;28;20482;-95
2023/05/26 07:06:11;;;;;;;11.50;7.20;;;;;;;21.83;73.40;98887.97;5070315;28;20078;-96
2023/05/26 07:08:39;;;;;;;9.10;7.03;;;;;;;22.06;72.24;98889.03;5069329;28;20064;-94
2023/05/26 07:11:06;;;;;;;12.75;6.57;;;;;;;22.38;73.32;98921.94;5073436;28;20044;-96
2023/05/26 07:13:32;;;;;;;9.68;7.25;;;;;;;22.01;72.74;98891.19;5087814;28;20144;-93
2023/05/26 07:15:58;;;;;;;10.40;6.97;;;;;;;22.06;74.38;98906.16;5064573;28;20060;-94
2023/05/26 07:18:24;;;;;;;16.23;8.52;;;;;;;22.00;74.90;98903.00;5082475;28;20040;-93
2023/05/26 07:20:50;;;;;;;11.10;7.47;;;;;;;22.48;73.95;98879.63;5086086;28;20055;-95
2023/05/26 07:23:16;;;;;;;19.95;10.57;;;;;;;22.10;74.15;98907.66;5075069;28;20044;-94
2023/05/26 07:25:43;;;;;;;13.20;7.60;;;;;;;22.18;72.98;98887.25;5087764;28;20048;-94
2023/05/26 07:28:09;;;;;;;9.82;6.95;;;;;;;21.93;75.65;98889.06;5074409;28;20055;-94
2023/05/26 07:30:35;;;;;;;11.88;6.85;;;;;;;22.05;74.13;98887.28;5084685;28;20056;-95
2023/05/26 07:33:01;;;;;;;8.98;6.53;;;;;;;22.34;73.60;98869.81;5086328;28;20101;-93
2023/05/26 07:35:27;;;;;;;11.02;7.30;;;;;;;22.56;73.62;98898.03;5088335;28;20048;-95
2023/05/26 07:37:55;;;;;;;14.27;8.70;;;;;;;22.22;70.62;98884.25;5087731;28;20040;-94
2023/05/26 07:40:21;;;;;;;11.50;7.20;;;;;;;22.60;70.05;98887.81;5091213;28;20139;-95
2023/05/26 07:42:54;;;;;;;10.95;7.20;;;;;;;22.82;68.60;98874.38;5089168;28;20078;-95
2023/05/26 07:45:20;;;;;;;12.77;7.28;;;;;;;23.24;67.16;98890.22;5087610;28;20566;-94
2023/05/26 07:47:46;;;;;;;8.38;6.32;;;;;;;22.84;69.31;98885.13;5086703;28;20044;-95
2023/05/26 07:50:13;;;;;;;10.73;6.20;;;;;;;23.16;68.02;98880.84;5084650;28;20048;-94
2023/05/26 07:52:39;;;;;;;11.45;6.57;;;;;;;23.05;68.85;98877.22;5092390;28;20043;-96
2023/05/26 07:55:06;;;;;;;9.27;6.50;;;;;;;23.34;68.93;98897.53;5108246;28;20047;-95
2023/05/26 07:57:32;;;;;;;9.25;7.13;;;;;;;22.64;69.65;98898.34;5093112;28;20055;-94
2023/05/26 07:59:59;;;;;;;11.82;7.35;;;;;;;22.46;68.95;98876.16;5089554;28;20072;-94
2023/05/26 08:02:25;;;;;;;9.90;7.30;;;;;;;22.98;69.31;98883.06;5086200;28;20041;-96
2023/05/26 08:04:51;;;;;;;10.32;6.85;;;;;;;23.66;67.22;98904.13;5086433;28;20040;-96
2023/05/26 08:07:17;;;;;;;9.50;6.93;;;;;;;23.93;66.34;98884.81;5088430;28;20067;-96
2023/05/26 08:09:43;;;;;;;9.15;6.80;;;;;;;23.72;65.67;98876.50;5086590;28;20126;-94
2023/05/26 08:12:09;;;;;;;8.45;6.63;;;;;;;24.19;65.66;98875.41;5103056;28;20064;-95
2023/05/26 08:14:35;;;;;;;11.50;7.15;;;;;;;23.88;64.36;98882.47;5106732;28;20077;-94
2023/05/26 08:17:03;;;;;;;9.00;6.68;;;;;;;23.65;66.17;98886.13;5103647;28;20040;-94
2023/05/26 08:19:29;;;;;;;9.25;7.00;;;;;;;23.70;65.75;98887.50;5091549;28;20126;-95
2023/05/26 08:21:55;;;;;;;9.18;7.00;;;;;;;23.26;68.18;98871.97;5089483;28;20044;-94
2023/05/26 08:24:23;;;;;;;12.38;7.57;;;;;;;23.45;66.63;98888.56;5086549;28;20036;-94
2023/05/26 08:26:49;;;;;;;8.80;6.75;;;;;;;23.53;66.53;98899.69;5086026;28;20116;-96
2023/05/26 08:29:16;;;;;;;11.43;6.85;;;;;;;23.72;67.28;98892.78;5086644;28;20050;-93
2023/05/26 08:31:41;;;;;;;9.35;7.03;;;;;;;24.03;64.55;98879.50;5087165;28;20079;-94
2023/05/26 08:34:09;;;;;;;11.00;7.30;;;;;;;24.08;62.93;98878.16;5089094;28;20032;-96
2023/05/26 08:36:35;;;;;;;10.48;7.40;;;;;;;23.89;65.04;98911.34;5086771;28;20558;-94
2023/05/26 08:39:02;;;;;;;10.75;6.97;;;;;;;24.02;65.13;98902.22;5090011;28;20036;-95
2023/05/26 08:41:35;;;;;;;11.85;6.72;;;;;;;24.39;64.24;98871.06;5087285;28;20044;-95
2023/05/26 08:44:05;;;;;;;11.05;7.60;;;;;;;24.70;61.55;98879.44;5096121;28;20039;-95
2023/05/26 08:46:32;;;;;;;9.43;6.60;;;;;;;24.73;63.05;98887.31;5113338;28;20088;-95
2023/05/26 08:48:58;;;;;;;11.05;6.97;;;;;;;23.95;64.03;98889.13;5088267;28;20048;-95
2023/05/26 08:51:28;;;;;;;9.77;7.40;;;;;;;24.21;64.56;98878.00;5087843;28;20051;-94
2023/05/26 08:53:55;;;;;;;12.60;7.57;;;;;;;24.53;62.13;98875.41;5109567;28;20108;-96
2023/05/26 08:56:22;;;;;;;10.48;7.32;;;;;;;24.88;61.60;98877.00;5110919;28;20051;-96
2023/05/26 08:58:51;;;;;;;9.23;7.13;;;;;;;24.76;61.06;98873.44;5113667;28;20076;-94
2023/05/26 09:01:17;;;;;;;;;;;;;;;24.51;63.56;98906.44;5093427;28;20068;-95
2023/05/26 09:03:43;;;;;;;10.25;7.13;;;;;;;24.70;61.27;98878.53;5091928;28;19938;-95
2023/05/26 09:06:09;;;;;;;12.98;7.60;;;;;;;24.75;62.12;98893.50;5086320;28;20562;-95
2023/05/26 09:08:36;;;;;;;10.70;7.53;;;;;;;24.46;63.45;98875.97;5092503;28;20044;-95
2023/05/26 09:11:25;;;;;;;11.85;7.15;;;;;;;25.07;61.58;98870.88;5086738;28;20067;-94
2023/05/26 09:13:52;;;;;;;10.82;7.47;;;;;;;25.09;61.07;98885.22;5088819;28;20497;-95
2023/05/26 09:16:21;;;;;;;11.57;7.70;;;;;;;24.68;62.67;98875.97;5092267;28;20035;-95
2023/05/26 09:18:48;;;;;;;10.60;7.88;;;;;;;24.97;60.59;98869.94;5104982;28;20039;-96
2023/05/26 09:21:16;;;;;;;;;;;;;;;25.17;60.81;98907.16;5106873;28;20047;-95
2023/05/26 09:23:46;;;;;;;14.38;7.35;;;;;;;25.07;61.41;98865.44;5090172;28;19916;-96
2023/05/26 09:26:16;;;;;;;11.02;7.32;;;;;;;25.34;59.88;98878.53;5086844;28;20516;-95
2023/05/26 09:28:47;;;;;;;9.85;6.95;;;;;;;25.10;60.47;98880.63;5084727;28;20108;-95
2023/05/26 09:31:12;;;;;;;9.77;6.97;;;;;;;25.17;61.02;98863.63;5092714;28;20062;-95
2023/05/26 09:33:45;;;;;;;11.30;8.00;;;;;;;25.57;59.96;98873.84;5093176;28;20555;-94
2023/05/26 09:36:11;;;;;;;11.02;7.55;;;;;;;25.68;58.64;98870.16;5086002;28;20535;-96
2023/05/26 09:38:37;;;;;;;10.52;7.20;;;;;;;25.98;57.14;98858.44;5086165;28;20048;-94
2023/05/26 09:41:05;;;;;;;8.70;6.80;;;;;;;25.92;59.91;98849.97;5092901;28;20043;-95
2023/05/26 09:43:33;;;;;;;10.40;7.35;;;;;;;26.36;55.36;98854.09;5089202;28;20488;-95
2023/05/26 09:45:59;;;;;;;10.73;6.45;;;;;;;26.67;52.40;98878.59;5107338;28;20046;-96
2023/05/26 09:48:32;;;;;;;14.15;6.78;;;;;;;26.47;51.15;98850.41;5113956;28;20043;-96
2023/05/26 09:51:12;;;;;;;13.85;6.95;;;;;;;25.67;53.52;98843.91;5113546;28;20040;-96
2023/05/26 09:53:38;;;;;;;11.38;7.10;;;;;;;25.70;52.63;98860.00;5104522;28;20036;-95
2023/05/26 09:56:09;;;;;;;15.63;7.68;;;;;;;26.27;51.74;98876.75;5101114;28;20054;-95
2023/05/26 09:58:42;;;;;;;11.93;7.18;;;;;;;26.04;51.27;98848.84;5090176;28;20044;-96
2023/05/26 10:04:45;;;;;;;9.65;6.80;;;;;;;26.18;52.09;98866.69;5138629;27;20195;-96
2023/05/26 10:07:12;;;;;;;10.90;7.05;;;;;;;26.40;54.02;98838.34;5052402;27;1871617;-96
2023/05/26 10:09:40;;;;;;;13.13;7.60;;;;;;;26.02;51.06;98845.38;5103188;28;20052;-96
2023/05/26 10:12:10;;;;;;;10.38;7.35;;;;;;;25.11;53.33;98856.03;5099935;28;20040;-95
2023/05/26 10:14:36;;;;;;;12.65;7.10;;;;;;;25.21;53.75;98865.13;5103105;28;20040;-95
2023/05/26 10:17:03;;;;;;;10.30;7.03;;;;;;;25.20;53.43;98870.72;5104461;28;20063;-93
2023/05/26 10:19:30;;;;;;;10.07;6.75;;;;;;;24.31;54.96;98857.25;5101001;28;20055;-94
2023/05/26 10:22:04;;;;;;;9.40;6.50;;;;;;;24.08;55.31;98856.41;5099912;28;20115;-95
2023/05/26 10:24:34;;;;;;;9.30;6.57;;;;;;;24.28;55.87;98862.91;5102042;28;20041;-93
2023/05/26 10:27:05;;;;;;;10.18;7.07;;;;;;;24.06;57.25;98868.41;5099323;28;20045;-95
2023/05/26 10:29:39;;;;;;;9.70;6.82;;;;;;;24.02;56.51;98840.59;5102376;28;20101;-95
2023/05/26 10:32:05;;;;;;;10.57;7.57;;;;;;;24.13;56.02;98866.91;5096595;28;20044;-94
2023/05/26 10:34:38;;;;;;;11.18;7.38;;;;;;;24.46;54.31;98827.06;5095968;28;20044;-95
2023/05/26 10:37:14;;;;;;;9.68;7.03;;;;;;;24.36;56.02;98855.00;5094967;28;20096;-93
2023/05/26 10:39:44;;;;;;;12.88;7.43;;;;;;;24.25;56.04;98841.44;5096883;28;20533;-95
2023/05/26 10:42:17;;;;;;;10.13;6.60;;;;;;;24.61;55.36;98844.84;5099677;28;20056;-96
2023/05/26 10:44:45;;;;;;;9.55;6.70;;;;;;;25.31;53.27;98824.38;5095636;28;20050;-95
2023/05/26 10:47:14;;;;;;;11.65;7.13;;;;;;;26.03;50.46;98834.38;5098156;28;20139;-94
2023/05/26 10:49:40;;;;;;;10.35;7.18;;;;;;;26.52;49.52;98831.75;5098102;28;20048;-95
2023/05/26 10:52:12;;;;;;;10.95;7.55;;;;;;;26.88;47.99;98836.69;5097846;28;20047;-95
2023/05/26 10:54:42;;;;;;;14.88;7.85;;;;;;;26.42;49.88;98815.38;5100004;28;20044;-96
2023/05/26 10:57:28;;;;;;;10.18;7.32;;;;;;;25.85;52.86;98832.38;5096213;28;20520;-95
2023/05/26 10:59:54;;;;;;;11.02;7.93;;;;;;;25.18;53.51;98821.84;5094300;28;20067;-94
2023/05/26 11:02:21;;;;;;;10.00;7.45;;;;;;;25.97;52.72;98832.19;5098379;28;20059;-95
2023/05/26 11:04:49;;;;;;;9.88;7.10;;;;;;;25.79;53.28;98820.19;5097160;28;20058;-96
2023/05/26 11:07:18;;;;;;;10.43;7.70;;;;;;;25.56;52.96;98817.63;5098385;28;20090;-95
2023/05/26 11:10:02;;;;;;;9.02;6.82;;;;;;;25.69;50.90;98849.25;5093091;28;20040;-94
2023/05/26 11:12:32;;;;;;;11.80;7.43;;;;;;;25.67;52.26;98816.69;5090502;28;20062;-93
2023/05/26 11:14:58;;;;;;;12.88;8.18;;;;;;;26.04;50.95;98813.41;5082423;28;20043;-93
2023/05/26 11:17:25;;;;;;;12.32;7.78;;;;;;;25.99;49.88;98826.59;5077176;28;20363;-94
2023/05/26 11:19:58;;;;;;;13.73;7.93;;;;;;;25.86;51.67;98818.63;5078410;28;20139;-95
2023/05/26 11:22:25;;;;;;;8.98;7.35;;;;;;;25.49;52.66;98805.56;5072496;28;20043;-95
2023/05/26 11:24:53;;;;;;;13.85;7.80;;;;;;;25.51;53.29;98822.63;5083471;28;20052;-95
2023/05/26 11:27:25;;;;;;;11.05;7.57;;;;;;;25.60;53.51;98829.97;5085614;28;20044;-95
2023/05/26 11:29:58;;;;;;;10.75;7.70;;;;;;;25.56;52.93;98824.94;5071504;28;20047;-95